C719 Diversion




Date Battery Voltage (V) Gauge Height (ft) Canal Flow (cfs) Gate 1 Height (ft) Gate 2 Height (ft) Pond (ft) Pond Height (ft) Pond Battery Voltage (V) Pond RF Signal (db) Call Fails Total Fails Tries Auto Pond Pond Set (ft) Gate 1 Warning Gate 2 Warning Gate 1 Up Total Gate 1 Down Total Gate 2 Up Total Gate 2 Down Total Settle Count Auto CFS CFS Set (cfs)
09/01/2017 12.8 0.55 16.07 0.24 0.24
09/02/2017 12.9 0.54 15.79 0.27 0.21
09/03/2017 12.9 0.50 13.82 0.42 0.11
09/04/2017 12.8 0.55 15.97 0.31 0.17
09/05/2017 12.8 0.55 15.97 0.39 0.08
09/06/2017 12.9 0.55 15.99 0.35 0.14
09/07/2017 12.9 0.56 16.66 0.25 0.24
09/08/2017 12.9 0.57 17.00 0.25 0.24
09/09/2017 12.9 0.57 17.08 0.26 0.25
09/10/2017 12.9 0.57 17.00 0.26 0.25
09/11/2017 12.9 0.57 17.01 0.26 0.25
09/12/2017 12.9 0.57 16.99 0.26 0.24
09/13/2017 12.9 0.57 17.07 0.27 0.24
09/14/2017 12.8 0.49 13.85 0.90 0.90
09/15/2017 12.6 0.50 14.09 1.95 1.96
09/16/2017 12.6 0.52 15.05 0.12 0.30
09/17/2017 12.9 0.52 14.99 0.05 0.28
09/18/2017 12.9 0.53 15.07 0.05 0.28
09/19/2017 12.9 0.52 15.03 0.05 0.28
09/20/2017 12.9 0.53 15.06 0.05 0.28
09/21/2017 12.9 0.52 15.02 0.05 0.28
09/22/2017 12.9 0.53 15.08 0.05 0.29
09/23/2017 12.9 0.52 15.05 0.05 0.29
09/24/2017 12.9 0.52 15.03 0.05 0.28
09/25/2017 12.7 0.52 15.02 0.05 0.28
09/26/2017 12.9 0.52 15.00 0.05 0.29
09/27/2017 13.0 0.52 15.03 0.05 0.29
09/28/2017 12.9 0.41 10.64 0.10 0.18
09/29/2017 12.9 0.34 8.01 0.14 0.10
09/30/2017 13.0 0.34 8.02 0.14 0.11
Average 14.92 0.00
Maximum 17.08
Minimum 8.01
Total Volume (AF) 887.31 0.00